createdAt,value
2018-03-02T00:01:34.017Z,54.57
2018-03-02T00:04:03.057Z,52.50
2018-03-02T00:06:31.552Z,54.97
2018-03-02T00:09:00.032Z,51.23
2018-03-02T00:11:28.308Z,57.67
2018-03-02T00:13:56.789Z,57.03
2018-03-02T00:16:25.061Z,54.17
2018-03-02T00:18:53.340Z,57.40
2018-03-02T00:21:21.670Z,54.70
2018-03-02T00:23:50.252Z,53.70
2018-03-02T00:26:18.820Z,57.67
2018-03-02T00:28:47.048Z,54.97
2018-03-02T00:31:15.352Z,58.40
2018-03-02T00:33:44.394Z,53.60
2018-03-02T00:36:12.686Z,58.47
2018-03-02T00:38:40.938Z,51.23
2018-03-02T00:41:09.173Z,53.00
2018-03-02T00:43:38.181Z,50.63
2018-03-02T00:46:06.403Z,55.43
2018-03-02T00:48:34.746Z,54.77
2018-03-02T00:51:03.764Z,53.53
2018-03-02T00:53:32.021Z,56.03
2018-03-02T00:56:00.262Z,57.63
2018-03-02T00:58:29.289Z,56.27
2018-03-02T01:00:57.487Z,58.50
2018-03-02T01:03:25.735Z,58.47
2018-03-02T01:05:53.932Z,55.33
2018-03-02T01:08:22.156Z,59.00
2018-03-02T01:10:51.455Z,55.00
2018-03-02T01:13:20.449Z,58.80
2018-03-02T01:15:49.440Z,55.53
2018-03-02T01:18:18.451Z,55.07
2018-03-02T01:20:46.693Z,57.50
2018-03-02T01:23:14.982Z,56.17
2018-03-02T01:25:44.012Z,56.57
2018-03-02T01:28:12.367Z,52.03
2018-03-02T01:30:41.344Z,49.53
2018-03-02T01:33:11.585Z,55.47
2018-03-02T01:35:40.560Z,56.50
2018-03-02T01:38:08.776Z,56.07
2018-03-02T01:40:37.024Z,56.03
2018-03-02T01:43:06.005Z,55.70
2018-03-02T01:45:35.097Z,53.23
2018-03-02T01:48:04.112Z,59.63
2018-03-02T01:50:32.312Z,55.97
2018-03-02T01:53:00.553Z,59.27
2018-03-02T01:55:31.020Z,53.03
2018-03-02T01:57:59.272Z,58.43
2018-03-02T02:00:27.512Z,55.80
2018-03-02T02:02:55.788Z,62.33
2018-03-02T02:05:24.094Z,54.00
2018-03-02T02:07:53.072Z,58.50
2018-03-02T02:10:21.376Z,56.23
2018-03-02T02:12:49.618Z,54.33
2018-03-02T02:15:17.889Z,59.97
2018-03-02T02:17:46.176Z,52.37
2018-03-02T02:20:15.276Z,53.40
2018-03-02T02:22:44.285Z,57.93
2018-03-02T02:25:12.644Z,54.70
2018-03-02T02:27:41.795Z,61.57
2018-03-02T02:30:09.996Z,61.77
2018-03-02T02:32:38.289Z,56.30
2018-03-02T02:35:07.317Z,59.83
2018-03-02T02:37:35.540Z,59.83
2018-03-02T02:40:03.796Z,53.87
2018-03-02T02:42:32.016Z,56.80
2018-03-02T02:45:01.015Z,52.10
2018-03-02T02:47:30.010Z,60.70
2018-03-02T02:49:58.985Z,57.57
2018-03-02T02:52:27.366Z,58.03
2018-03-02T02:54:55.585Z,54.77
2018-03-02T02:57:23.845Z,55.33
2018-03-02T02:59:52.102Z,56.30
2018-03-02T03:02:21.117Z,50.20
2018-03-02T03:04:49.344Z,57.17
2018-03-02T03:07:17.554Z,58.50
2018-03-02T03:09:46.553Z,51.73
2018-03-02T03:12:14.779Z,55.50
2018-03-02T03:14:43.006Z,51.60
2018-03-02T03:17:11.248Z,55.93
2018-03-02T03:19:39.505Z,56.00
2018-03-02T03:22:07.708Z,57.27
2018-03-02T03:24:36.815Z,55.97
2018-03-02T03:27:05.871Z,60.57
2018-03-02T03:29:34.068Z,53.40
2018-03-02T03:32:02.418Z,57.47
2018-03-02T03:34:30.682Z,58.27
2018-03-02T03:36:58.890Z,57.13
2018-03-02T03:39:27.145Z,62.23
2018-03-02T03:41:55.352Z,62.47
2018-03-02T03:44:23.645Z,57.17
2018-03-02T03:46:52.740Z,64.40
2018-03-02T03:49:21.812Z,53.83
2018-03-02T03:51:50.012Z,57.43
2018-03-02T03:54:19.006Z,57.27
2018-03-02T03:56:48.013Z,58.70
2018-03-02T03:59:16.471Z,63.67
2018-03-02T04:01:45.492Z,58.20
2018-03-02T04:04:13.720Z,58.77
2018-03-02T04:06:41.973Z,56.13
2018-03-02T04:09:10.229Z,54.60
2018-03-02T04:11:38.431Z,56.53
2018-03-02T04:14:06.636Z,56.87
2018-03-02T04:16:35.872Z,59.30
2018-03-02T04:19:04.083Z,57.60
2018-03-02T04:21:32.285Z,62.33
2018-03-02T04:24:01.311Z,54.27
2018-03-02T04:26:29.521Z,56.17
2018-03-02T04:28:57.724Z,58.33
2018-03-02T04:31:26.002Z,62.97
2018-03-02T04:33:54.282Z,59.33
2018-03-02T04:36:23.241Z,60.10
2018-03-02T04:38:51.532Z,60.17
2018-03-02T04:41:19.741Z,61.27
2018-03-02T04:43:47.953Z,57.57
2018-03-02T04:46:16.289Z,59.80
2018-03-02T04:48:45.316Z,60.53
2018-03-02T04:51:13.578Z,67.70
2018-03-02T04:53:41.885Z,62.70
2018-03-02T04:56:10.085Z,72.93
2018-03-02T04:58:38.342Z,75.67
2018-03-02T05:01:07.783Z,67.73
2018-03-02T05:03:36.920Z,61.60
2018-03-02T05:06:05.137Z,64.57
2018-03-02T05:08:33.369Z,65.90
2018-03-02T05:11:01.719Z,63.87
2018-03-02T05:13:30.092Z,67.30
2018-03-02T05:15:59.096Z,72.00
2018-03-02T05:18:27.304Z,63.37
2018-03-02T05:20:55.738Z,65.97
2018-03-02T05:23:24.047Z,59.87
2018-03-02T05:25:52.277Z,69.20
2018-03-02T05:28:20.492Z,65.87
2018-03-02T05:30:48.809Z,66.03
2018-03-02T05:33:17.293Z,66.00
2018-03-02T05:35:45.805Z,67.87
2018-03-02T05:38:14.145Z,68.70
2018-03-02T05:40:42.344Z,67.77
2018-03-02T05:43:10.564Z,74.17
2018-03-02T05:45:39.588Z,75.13
2018-03-02T05:48:07.830Z,66.33
2018-03-02T05:50:36.921Z,70.23
2018-03-02T05:53:05.914Z,64.37
2018-03-02T05:55:34.939Z,67.03
2018-03-02T05:58:03.165Z,81.43
2018-03-02T06:00:31.464Z,80.53
2018-03-02T06:03:00.484Z,80.33
2018-03-02T06:05:28.781Z,72.23
2018-03-02T06:07:57.003Z,84.93
2018-03-02T06:10:26.000Z,77.30
2018-03-02T06:12:54.974Z,71.73
2018-03-02T06:15:23.232Z,89.70
2018-03-02T06:17:51.520Z,80.87
2018-03-02T06:20:19.731Z,82.57
2018-03-02T06:22:48.732Z,73.33
2018-03-02T06:25:16.936Z,67.57
2018-03-02T06:27:45.166Z,110.07
2018-03-02T06:30:14.161Z,71.17
2018-03-02T06:32:43.138Z,65.93
2018-03-02T06:35:11.357Z,72.93
2018-03-02T06:37:39.572Z,70.63
2018-03-02T06:40:07.780Z,72.33
2018-03-02T06:42:37.018Z,62.50
2018-03-02T06:45:05.339Z,67.53
2018-03-02T06:47:33.560Z,73.03
2018-03-02T06:50:01.771Z,64.53
2018-03-02T06:52:30.024Z,72.60
2018-03-02T06:54:58.235Z,65.67
2018-03-02T06:57:26.521Z,66.80
2018-03-02T06:59:55.572Z,60.87
2018-03-02T07:02:24.029Z,62.43
2018-03-02T07:04:53.026Z,66.40
2018-03-02T07:07:21.371Z,72.43
2018-03-02T07:09:50.364Z,61.67
2018-03-02T07:12:19.898Z,62.73
2018-03-02T07:14:48.127Z,60.60
2018-03-02T07:17:16.339Z,68.33
2018-03-02T07:19:45.312Z,62.23
2018-03-02T07:22:13.568Z,70.23
2018-03-02T07:24:41.769Z,57.70
2018-03-02T07:27:10.754Z,59.30
2018-03-02T07:29:39.931Z,61.13
2018-03-02T07:32:08.136Z,59.90
2018-03-02T07:34:37.191Z,60.50
2018-03-02T07:37:05.384Z,60.97
2018-03-02T07:39:33.612Z,65.73
2018-03-02T07:42:01.824Z,63.27
2018-03-02T07:44:30.106Z,64.53
2018-03-02T07:46:58.389Z,62.97
2018-03-02T07:49:26.604Z,53.70
2018-03-02T07:51:54.936Z,55.30
2018-03-02T07:54:23.166Z,58.93
2018-03-02T07:56:51.359Z,56.40
2018-03-02T07:59:19.661Z,52.57
2018-03-02T08:01:47.938Z,57.63
2018-03-02T08:04:16.202Z,52.50
2018-03-02T08:06:44.538Z,54.77
2018-03-02T08:09:12.804Z,55.10
2018-03-02T08:11:41.044Z,52.50
2018-03-02T08:14:10.140Z,51.60
2018-03-02T08:16:38.354Z,55.30
2018-03-02T08:19:06.581Z,51.83
2018-03-02T08:21:34.813Z,57.50
2018-03-02T08:24:03.031Z,56.27
2018-03-02T08:26:31.249Z,54.07
2018-03-02T08:29:00.248Z,56.53
2018-03-02T08:31:28.467Z,52.53
2018-03-02T08:33:57.100Z,54.50
2018-03-02T08:36:26.169Z,52.27
2018-03-02T08:38:54.556Z,54.47
2018-03-02T08:41:23.529Z,56.03
2018-03-02T08:43:51.785Z,49.73
2018-03-02T08:46:20.033Z,55.80
2018-03-02T08:48:48.300Z,51.70
2018-03-02T08:51:16.568Z,55.37
2018-03-02T08:53:45.574Z,56.07
2018-03-02T08:56:13.732Z,56.27
2018-03-02T08:58:42.782Z,54.93
2018-03-02T09:01:10.997Z,63.47
2018-03-02T09:03:41.367Z,54.07
2018-03-02T09:06:09.596Z,53.43
2018-03-02T09:08:38.616Z,50.57
2018-03-02T09:11:06.824Z,54.17
2018-03-02T09:13:35.172Z,55.90
2018-03-02T09:16:03.379Z,59.97
2018-03-02T09:18:31.681Z,51.60
2018-03-02T09:20:59.951Z,54.20
2018-03-02T09:23:28.143Z,52.77
2018-03-02T09:25:57.116Z,53.77
2018-03-02T09:28:25.344Z,58.87
2018-03-02T09:30:53.566Z,52.27
2018-03-02T09:33:21.780Z,52.77
2018-03-02T09:35:50.031Z,52.63
2018-03-02T09:38:18.283Z,56.27
2018-03-02T09:40:46.513Z,54.47
2018-03-02T09:43:16.064Z,50.87
2018-03-02T09:45:44.299Z,50.80
2018-03-02T09:48:12.648Z,45.17
2018-03-02T09:50:41.645Z,44.23
2018-03-02T09:53:10.618Z,49.47
2018-03-02T09:55:39.601Z,45.93
2018-03-02T09:58:08.681Z,45.37
2018-03-02T10:00:36.991Z,43.53
2018-03-02T10:03:05.169Z,44.63
2018-03-02T10:05:33.404Z,48.83
2018-03-02T10:08:01.599Z,46.13
2018-03-02T10:10:29.864Z,47.17
2018-03-02T10:12:58.120Z,45.30
2018-03-02T10:15:26.342Z,43.80
2018-03-02T10:17:54.630Z,47.73
2018-03-02T10:20:23.666Z,47.07
2018-03-02T10:22:51.878Z,45.03
2018-03-02T10:25:20.853Z,48.03
2018-03-02T10:27:49.135Z,45.13
2018-03-02T10:30:17.561Z,51.47
2018-03-02T10:32:46.588Z,47.37
2018-03-02T10:35:14.815Z,44.67
2018-03-02T10:37:43.804Z,47.00
2018-03-02T10:42:49.304Z,44.33
2018-03-02T10:45:17.501Z,48.97
2018-03-02T10:47:45.731Z,42.97
2018-03-02T10:50:13.960Z,43.37
2018-03-02T10:52:42.157Z,47.43
2018-03-02T10:55:10.384Z,45.90
2018-03-02T10:57:39.386Z,44.97
2018-03-02T11:00:07.586Z,45.77
2018-03-02T11:02:35.777Z,47.30
2018-03-02T11:05:09.736Z,45.03
2018-03-02T11:07:38.146Z,47.03
2018-03-02T11:10:06.352Z,45.73
2018-03-02T11:12:35.349Z,50.53
2018-03-02T11:15:04.334Z,47.40
2018-03-02T11:17:32.584Z,47.70
2018-03-02T11:20:00.829Z,47.40
2018-03-02T11:22:29.189Z,49.33
2018-03-02T11:24:57.394Z,47.97
2018-03-02T11:27:25.688Z,48.93
2018-03-02T11:29:53.844Z,52.70
2018-03-02T11:32:22.068Z,49.63
2018-03-02T11:34:51.641Z,46.20
2018-03-02T11:37:19.898Z,47.53
2018-03-02T11:39:48.096Z,48.10
2018-03-02T11:42:16.336Z,51.57
2018-03-02T11:44:44.550Z,48.70
2018-03-02T11:47:12.806Z,48.10
2018-03-02T11:49:41.076Z,49.20
2018-03-02T11:52:09.300Z,48.90
2018-03-02T11:54:38.469Z,53.77
2018-03-02T11:57:06.821Z,46.73
2018-03-02T11:59:35.096Z,51.80
2018-03-02T12:02:03.298Z,53.73
2018-03-02T12:04:31.652Z,52.10
2018-03-02T12:06:59.901Z,52.47
2018-03-02T12:09:28.112Z,48.07
2018-03-02T12:11:56.382Z,49.63
2018-03-02T12:14:24.621Z,50.13
2018-03-02T12:16:53.614Z,51.20
2018-03-02T12:19:21.840Z,48.37
2018-03-02T12:21:50.084Z,49.97
2018-03-02T12:24:18.288Z,45.17
2018-03-02T12:26:46.555Z,50.77
2018-03-02T12:29:14.770Z,48.57
2018-03-02T12:31:43.012Z,45.73
2018-03-02T12:34:11.263Z,48.90
2018-03-02T12:36:39.907Z,47.17
2018-03-02T12:39:08.070Z,55.03
2018-03-02T12:41:36.376Z,52.83
2018-03-02T12:44:05.506Z,52.23
2018-03-02T12:46:33.810Z,54.57
2018-03-02T12:49:02.080Z,47.47
2018-03-02T12:51:30.268Z,53.23
2018-03-02T12:53:58.593Z,54.97
2018-03-02T12:56:28.971Z,52.47
2018-03-02T12:58:57.351Z,52.03
2018-03-02T13:01:25.872Z,51.30
2018-03-02T13:03:54.592Z,45.63
2018-03-02T13:06:22.849Z,47.90
2018-03-02T13:08:51.049Z,52.90
2018-03-02T13:11:20.568Z,51.73
2018-03-02T13:13:49.394Z,54.90
2018-03-02T13:16:19.027Z,53.23
2018-03-02T13:18:47.418Z,51.57
2018-03-02T13:21:16.416Z,55.20
2018-03-02T13:23:44.734Z,57.27
2018-03-02T13:26:24.766Z,56.80
2018-03-02T13:28:52.979Z,57.87
2018-03-02T13:31:21.959Z,62.33
2018-03-02T13:34:02.680Z,59.23
2018-03-02T13:36:31.230Z,61.87
2018-03-02T13:39:00.336Z,52.83
2018-03-02T13:41:40.481Z,56.77
2018-03-02T13:44:08.991Z,63.67
2018-03-02T13:46:37.289Z,56.70
2018-03-02T13:49:17.532Z,56.83
2018-03-02T13:51:45.847Z,61.17
2018-03-02T13:54:14.068Z,57.77
2018-03-02T13:56:54.114Z,59.70
2018-03-02T13:59:22.371Z,54.20
2018-03-02T14:01:51.472Z,63.30
2018-03-02T14:04:32.418Z,56.03
2018-03-02T14:07:00.716Z,55.80
2018-03-02T14:09:29.764Z,56.93
2018-03-02T14:11:59.366Z,57.97
2018-03-02T14:14:27.678Z,58.07
2018-03-02T14:16:55.961Z,55.37
2018-03-02T14:19:25.019Z,58.40
2018-03-02T14:21:53.272Z,56.73
2018-03-02T14:24:21.469Z,61.80
2018-03-02T14:26:49.736Z,56.33
2018-03-02T14:29:18.052Z,62.10
2018-03-02T14:31:46.380Z,60.03
2018-03-02T14:34:14.652Z,64.57
2018-03-02T14:36:42.862Z,60.90
2018-03-02T14:39:11.078Z,58.47
2018-03-02T14:41:40.319Z,61.90
2018-03-02T14:44:08.896Z,63.93
2018-03-02T14:46:37.101Z,61.80
2018-03-02T14:49:05.340Z,60.33
2018-03-02T14:51:33.673Z,57.93
2018-03-02T14:54:01.844Z,61.97
2018-03-02T14:56:30.147Z,68.70
2018-03-02T14:58:58.410Z,66.13
2018-03-02T15:01:27.736Z,56.07
2018-03-02T15:03:56.026Z,57.23
2018-03-02T15:06:24.226Z,66.20
2018-03-02T15:08:52.433Z,57.00
2018-03-02T15:11:20.656Z,58.83
2018-03-02T15:13:48.959Z,63.53
2018-03-02T15:16:17.181Z,67.87
2018-03-02T15:18:46.281Z,64.30
2018-03-02T15:21:15.267Z,64.07
2018-03-02T15:23:44.608Z,62.47
2018-03-02T15:26:12.925Z,68.07
2018-03-02T15:28:41.290Z,61.00
2018-03-02T15:31:09.490Z,65.93
2018-03-02T15:33:38.496Z,72.00
2018-03-02T15:36:07.456Z,65.40
2018-03-02T15:38:35.706Z,60.93
2018-03-02T15:41:04.012Z,71.10
2018-03-02T15:43:32.278Z,64.67
2018-03-02T15:46:00.560Z,67.57
2018-03-02T15:48:28.784Z,67.70
2018-03-02T15:50:56.984Z,66.87
2018-03-02T15:53:25.184Z,67.53
2018-03-02T15:55:53.453Z,65.87
2018-03-02T15:58:21.661Z,66.40
2018-03-02T16:00:50.668Z,64.13
2018-03-02T16:03:19.008Z,63.27
2018-03-02T16:05:48.005Z,67.47
2018-03-02T16:08:16.280Z,68.80
2018-03-02T16:10:45.450Z,68.47
2018-03-02T16:13:13.781Z,71.40
2018-03-02T16:15:42.870Z,68.77
2018-03-02T16:18:11.144Z,70.33
2018-03-02T16:20:39.404Z,65.10
2018-03-02T16:23:08.401Z,64.43
2018-03-02T16:25:36.757Z,67.63
2018-03-02T16:28:05.028Z,73.33
2018-03-02T16:30:33.285Z,63.83
2018-03-02T16:33:01.585Z,69.07
2018-03-02T16:35:29.966Z,69.93
2018-03-02T16:37:58.165Z,64.57
2018-03-02T16:40:26.458Z,69.67
2018-03-02T16:42:55.424Z,67.23
2018-03-02T16:45:23.657Z,71.40
2018-03-02T16:47:53.158Z,65.20
2018-03-02T16:50:21.388Z,65.83
2018-03-02T16:52:49.684Z,65.67
2018-03-02T16:55:18.853Z,71.83
2018-03-02T16:57:47.074Z,70.80
2018-03-02T17:00:15.277Z,67.57
2018-03-02T17:02:43.547Z,65.10
2018-03-02T17:05:11.729Z,72.10
2018-03-02T17:07:39.933Z,66.93
2018-03-02T17:10:08.280Z,68.67
2018-03-02T17:12:36.544Z,65.40
2018-03-02T17:15:05.018Z,67.43
2018-03-02T17:17:33.463Z,71.80
2018-03-02T17:20:01.723Z,67.73
2018-03-02T17:22:30.037Z,68.47
2018-03-02T17:24:59.041Z,67.57
2018-03-02T17:27:27.296Z,72.87
2018-03-02T17:29:56.333Z,70.17
2018-03-02T17:32:25.739Z,66.37
2018-03-02T17:34:54.097Z,69.53
2018-03-02T17:37:22.329Z,65.33
2018-03-02T17:39:51.539Z,66.73
2018-03-02T17:42:19.816Z,73.30
2018-03-02T17:44:48.824Z,71.43
2018-03-02T17:47:17.064Z,77.23
2018-03-02T17:49:45.288Z,77.27
2018-03-02T17:52:13.815Z,73.50
2018-03-02T17:54:42.382Z,70.40
2018-03-02T17:57:11.427Z,74.13
2018-03-02T17:59:39.807Z,68.67
2018-03-02T18:02:08.232Z,69.77
2018-03-02T18:04:36.509Z,73.50
2018-03-02T18:07:04.872Z,69.63
2018-03-02T18:09:33.126Z,66.90
2018-03-02T18:12:01.427Z,68.37
2018-03-02T18:14:29.739Z,69.37
2018-03-02T18:16:58.057Z,68.17
2018-03-02T18:19:26.295Z,66.57
2018-03-02T18:21:54.641Z,71.40
2018-03-02T18:24:23.023Z,63.03
2018-03-02T18:26:51.210Z,72.83
2018-03-02T18:29:19.457Z,72.20
2018-03-02T18:31:47.724Z,72.07
2018-03-02T18:34:15.925Z,68.13
2018-03-02T18:36:44.221Z,74.93
2018-03-02T18:39:12.495Z,72.90
2018-03-02T18:41:40.716Z,72.23
2018-03-02T18:44:09.719Z,69.03
2018-03-02T18:46:37.985Z,65.30
2018-03-02T18:49:07.090Z,67.50
2018-03-02T18:51:36.044Z,70.10
2018-03-02T18:54:04.368Z,75.87
2018-03-02T18:56:32.756Z,69.23
2018-03-02T18:59:00.976Z,66.73
2018-03-02T19:01:29.255Z,70.80
2018-03-02T19:03:57.598Z,69.47
2018-03-02T19:06:25.817Z,61.87
2018-03-02T19:08:54.073Z,66.17
2018-03-02T19:11:22.329Z,61.33
2018-03-02T19:13:50.638Z,71.60
2018-03-02T19:16:19.040Z,70.10
2018-03-02T19:18:48.177Z,69.73
2018-03-02T19:21:16.432Z,67.70
2018-03-02T19:23:45.123Z,72.77
2018-03-02T19:26:13.529Z,64.03
2018-03-02T19:28:41.748Z,66.43
2018-03-02T19:31:10.763Z,71.40
2018-03-02T19:33:39.043Z,68.97
2018-03-02T19:36:07.350Z,62.80
2018-03-02T19:38:35.580Z,63.17
2018-03-02T19:41:03.821Z,63.03
2018-03-02T19:43:32.002Z,63.23
2018-03-02T19:46:00.312Z,69.47
2018-03-02T19:48:28.521Z,67.90
2018-03-02T19:50:56.781Z,67.90
2018-03-02T19:53:25.020Z,61.17
2018-03-02T19:55:53.997Z,66.33
2018-03-02T19:58:22.256Z,61.90
2018-03-02T20:00:50.480Z,64.67
2018-03-02T20:03:18.822Z,65.80
2018-03-02T20:05:47.079Z,62.60
2018-03-02T20:08:15.509Z,65.70
2018-03-02T20:10:43.771Z,63.93
2018-03-02T20:13:11.980Z,64.80
2018-03-02T20:15:41.230Z,62.57
2018-03-02T20:18:09.559Z,63.83
2018-03-02T20:20:37.824Z,70.43
2018-03-02T20:23:06.124Z,62.67
2018-03-02T20:25:34.358Z,63.40
2018-03-02T20:28:03.354Z,66.73
2018-03-02T20:30:32.486Z,62.67
2018-03-02T20:33:00.691Z,61.63
2018-03-02T20:35:28.972Z,70.00
2018-03-02T20:37:57.241Z,62.40
2018-03-02T20:40:26.205Z,61.97
2018-03-02T20:42:54.424Z,66.67
2018-03-02T20:45:22.706Z,62.30
2018-03-02T20:47:50.969Z,64.40
2018-03-02T20:50:19.213Z,61.53
2018-03-02T20:52:49.844Z,65.67
2018-03-02T20:55:18.048Z,66.20
2018-03-02T20:57:46.419Z,59.50
2018-03-02T21:00:14.693Z,67.13
2018-03-02T21:02:43.021Z,64.80
2018-03-02T21:05:11.264Z,62.90
2018-03-02T21:07:39.589Z,67.10
2018-03-02T21:10:07.899Z,64.80
2018-03-02T21:12:36.110Z,69.93
2018-03-02T21:15:05.234Z,66.10
2018-03-02T21:17:33.445Z,64.97
2018-03-02T21:20:04.041Z,62.23
2018-03-02T21:22:33.622Z,71.37
2018-03-02T21:25:01.956Z,60.60
2018-03-02T21:27:30.646Z,65.90
2018-03-02T21:29:58.880Z,62.67
2018-03-02T21:32:27.093Z,72.47
2018-03-02T21:34:55.407Z,63.83
2018-03-02T21:37:25.663Z,69.03
2018-03-02T21:39:53.925Z,64.83
2018-03-02T21:42:22.127Z,62.97
2018-03-02T21:44:50.389Z,66.00
2018-03-02T21:47:18.656Z,62.23
2018-03-02T21:49:46.942Z,64.83
2018-03-02T21:52:16.342Z,70.27
2018-03-02T21:54:45.761Z,61.97
2018-03-02T21:57:14.133Z,59.77
2018-03-02T21:59:42.434Z,57.50
2018-03-02T22:02:10.661Z,66.63
2018-03-02T22:04:38.938Z,68.03
2018-03-02T22:07:07.184Z,67.13
2018-03-02T22:09:35.581Z,67.93
2018-03-02T22:12:04.574Z,67.87
2018-03-02T22:14:33.658Z,63.70
2018-03-02T22:17:01.940Z,64.27
2018-03-02T22:19:30.225Z,57.63
2018-03-02T22:22:00.776Z,70.70
2018-03-02T22:24:29.077Z,64.33
2018-03-02T22:26:57.369Z,66.50
2018-03-02T22:29:25.738Z,62.27
2018-03-02T22:31:54.140Z,60.53
2018-03-02T22:34:22.400Z,61.00
2018-03-02T22:36:50.708Z,59.63
2018-03-02T22:39:18.912Z,59.30
2018-03-02T22:41:47.279Z,67.10
2018-03-02T22:44:16.356Z,59.23
2018-03-02T22:46:44.564Z,64.57
2018-03-02T22:49:12.777Z,66.27
2018-03-02T22:51:41.012Z,64.63
2018-03-02T22:54:09.340Z,64.27
2018-03-02T22:56:37.581Z,59.37
2018-03-02T22:59:07.082Z,68.57
2018-03-02T23:01:35.682Z,63.27
2018-03-02T23:04:04.022Z,70.10
2018-03-02T23:06:33.361Z,65.87
2018-03-02T23:09:02.547Z,59.57
2018-03-02T23:11:30.750Z,68.13
2018-03-02T23:13:59.057Z,66.33
2018-03-02T23:16:28.072Z,65.40
2018-03-02T23:18:56.321Z,61.30
2018-03-02T23:21:24.561Z,62.27
2018-03-02T23:23:52.932Z,64.47
2018-03-02T23:26:21.165Z,66.27
2018-03-02T23:28:50.373Z,64.00
2018-03-02T23:31:19.366Z,61.97
2018-03-02T23:33:47.564Z,65.23
2018-03-02T23:36:15.842Z,62.90
2018-03-02T23:38:44.053Z,71.60
2018-03-02T23:41:12.310Z,70.60
2018-03-02T23:43:40.560Z,57.10
2018-03-02T23:46:08.859Z,67.73
2018-03-02T23:48:37.125Z,61.53
2018-03-02T23:51:05.463Z,61.93
2018-03-02T23:53:34.460Z,64.80
2018-03-02T23:56:03.482Z,64.87
2018-03-02T23:58:31.801Z,68.10
